createdAt,value
2018-08-07T00:00:05.522Z,10.47
2018-08-07T00:02:33.905Z,10.90
2018-08-07T00:05:02.228Z,11.93
2018-08-07T00:07:30.597Z,10.50
2018-08-07T00:09:59.013Z,10.70
2018-08-07T00:12:27.457Z,11.43
2018-08-07T00:14:55.873Z,11.30
2018-08-07T00:17:24.329Z,10.50
2018-08-07T00:19:52.632Z,9.63
2018-08-07T00:22:20.992Z,10.53
2018-08-07T00:24:49.349Z,11.03
2018-08-07T00:27:17.889Z,10.43
2018-08-07T00:29:46.289Z,10.73
2018-08-07T00:32:14.646Z,11.07
2018-08-07T00:34:43.102Z,10.83
2018-08-07T00:37:11.435Z,11.00
2018-08-07T00:39:39.761Z,11.03
2018-08-07T00:42:08.719Z,11.70
2018-08-07T00:44:37.070Z,11.23
2018-08-07T00:47:05.744Z,11.43
2018-08-07T00:49:33.985Z,12.10
2018-08-07T00:52:02.362Z,12.00
2018-08-07T00:54:30.753Z,11.83
2018-08-07T00:56:59.132Z,10.80
2018-08-07T00:59:27.521Z,10.43
2018-08-07T01:01:55.861Z,11.57
2018-08-07T01:04:24.325Z,10.80
2018-08-07T01:06:52.741Z,10.60
2018-08-07T01:09:21.081Z,11.50
2018-08-07T01:11:49.410Z,10.37
2018-08-07T01:14:17.784Z,10.70
2018-08-07T01:16:46.176Z,10.73
2018-08-07T01:19:14.605Z,11.13
2018-08-07T01:21:42.929Z,10.83
2018-08-07T01:24:11.274Z,10.70
2018-08-07T01:26:39.789Z,11.40
2018-08-07T01:29:08.274Z,10.57
2018-08-07T01:31:36.632Z,11.73
2018-08-07T01:34:05.129Z,11.63
2018-08-07T01:36:33.447Z,11.50
2018-08-07T01:39:01.913Z,10.30
2018-08-07T01:41:30.233Z,12.00
2018-08-07T01:43:58.565Z,12.10
2018-08-07T01:46:26.940Z,12.03
2018-08-07T01:48:55.354Z,11.57
2018-08-07T01:51:23.593Z,11.93
2018-08-07T01:53:51.956Z,12.00
2018-08-07T01:56:20.361Z,10.43
2018-08-07T01:58:48.758Z,11.03
2018-08-07T02:01:17.117Z,10.17
2018-08-07T02:03:45.496Z,9.93
2018-08-07T02:06:13.958Z,11.20
2018-08-07T02:08:42.270Z,10.87
2018-08-07T02:11:10.587Z,10.80
2018-08-07T02:13:39.206Z,11.27
2018-08-07T02:16:07.578Z,11.20
2018-08-07T02:18:35.897Z,11.70
2018-08-07T02:21:04.249Z,11.07
2018-08-07T02:23:32.565Z,11.60
2018-08-07T02:26:00.880Z,12.00
2018-08-07T02:28:29.221Z,11.70
2018-08-07T02:30:57.620Z,10.27
2018-08-07T02:33:25.983Z,11.80
2018-08-07T02:35:54.300Z,11.83
2018-08-07T02:38:22.607Z,11.90
2018-08-07T02:40:50.971Z,11.27
2018-08-07T02:43:19.334Z,12.20
2018-08-07T02:45:47.715Z,11.90
2018-08-07T02:48:16.118Z,11.13
2018-08-07T02:50:44.284Z,11.30
2018-08-07T02:53:12.549Z,11.40
2018-08-07T02:55:40.888Z,11.30
2018-08-07T02:58:09.257Z,12.33
2018-08-07T03:00:43.652Z,11.70
2018-08-07T03:03:12.121Z,11.57
2018-08-07T03:05:40.528Z,10.90
2018-08-07T03:08:08.907Z,13.30
2018-08-07T03:10:37.254Z,10.63
2018-08-07T03:13:05.662Z,10.70
2018-08-07T03:15:33.990Z,11.80
2018-08-07T03:18:02.301Z,11.10
2018-08-07T03:20:30.650Z,11.50
2018-08-07T03:22:58.988Z,12.67
2018-08-07T03:25:27.335Z,11.90
2018-08-07T03:27:55.681Z,11.60
2018-08-07T03:30:24.006Z,11.90
2018-08-07T03:32:52.304Z,11.43
2018-08-07T03:35:20.663Z,12.17
2018-08-07T03:37:48.992Z,11.43
2018-08-07T03:40:19.317Z,12.30
2018-08-07T03:42:47.860Z,10.90
2018-08-07T03:45:17.377Z,11.73
2018-08-07T03:47:46.370Z,11.40
2018-08-07T03:50:14.801Z,11.20
2018-08-07T03:52:43.183Z,12.40
2018-08-07T03:55:15.131Z,12.00
2018-08-07T03:57:44.233Z,10.77
2018-08-07T04:00:19.106Z,12.50
2018-08-07T04:02:47.460Z,12.30
2018-08-07T04:05:15.955Z,10.70
2018-08-07T04:07:44.477Z,12.40
2018-08-07T04:10:13.945Z,12.27
2018-08-07T04:12:42.368Z,11.83
2018-08-07T04:15:13.516Z,12.00
2018-08-07T04:17:43.090Z,12.50
2018-08-07T04:20:13.996Z,11.93
2018-08-07T04:22:42.346Z,12.67
2018-08-07T04:25:10.725Z,12.17
2018-08-07T04:27:39.202Z,12.73
2018-08-07T04:30:10.964Z,12.63
2018-08-07T04:32:39.504Z,12.70
2018-08-07T04:35:07.869Z,12.43
2018-08-07T04:37:36.421Z,13.77
2018-08-07T04:40:06.653Z,11.20
2018-08-07T04:42:35.819Z,12.20
2018-08-07T04:45:06.539Z,10.97
2018-08-07T04:47:34.868Z,12.43
2018-08-07T04:50:04.026Z,12.00
2018-08-07T04:52:32.429Z,12.07
2018-08-07T04:55:00.806Z,12.70
2018-08-07T04:57:29.249Z,12.10
2018-08-07T04:59:57.526Z,11.40
2018-08-07T05:02:25.881Z,12.10
2018-08-07T05:04:54.257Z,10.90
2018-08-07T05:07:22.737Z,12.80
2018-08-07T05:09:51.055Z,12.53
2018-08-07T05:12:19.437Z,12.10
2018-08-07T05:14:48.250Z,13.27
2018-08-07T05:17:16.645Z,11.70
2018-08-07T05:19:45.067Z,12.00
2018-08-07T05:22:13.439Z,12.30
2018-08-07T05:24:41.798Z,11.80
2018-08-07T05:27:10.297Z,12.20
2018-08-07T05:29:38.608Z,12.00
2018-08-07T05:32:07.347Z,12.20
2018-08-07T05:34:35.709Z,11.77
2018-08-07T05:37:04.235Z,11.43
2018-08-07T05:39:32.586Z,12.30
2018-08-07T05:42:00.977Z,11.80
2018-08-07T05:44:29.394Z,12.67
2018-08-07T05:46:57.832Z,12.20
2018-08-07T05:49:26.279Z,12.30
2018-08-07T05:51:54.665Z,10.50
2018-08-07T05:54:23.040Z,12.73
2018-08-07T05:56:51.485Z,12.03
2018-08-07T05:59:20.001Z,11.80
2018-08-07T06:01:48.439Z,12.50
2018-08-07T06:04:16.936Z,12.30
2018-08-07T06:06:45.385Z,10.50
2018-08-07T06:09:13.796Z,11.83
2018-08-07T06:11:42.074Z,11.13
2018-08-07T06:14:10.438Z,11.47
2018-08-07T06:16:38.822Z,10.50
2018-08-07T06:19:07.149Z,11.00
2018-08-07T06:21:35.553Z,11.23
2018-08-07T06:24:03.934Z,10.80
2018-08-07T06:26:32.260Z,11.90
2018-08-07T06:29:00.590Z,10.83
2018-08-07T06:31:28.931Z,10.17
2018-08-07T06:33:57.262Z,10.63
2018-08-07T06:36:25.502Z,11.90
2018-08-07T06:38:53.942Z,11.57
2018-08-07T06:41:22.317Z,10.27
2018-08-07T06:43:50.661Z,11.20
2018-08-07T06:46:18.990Z,11.10
2018-08-07T06:48:47.253Z,11.40
2018-08-07T06:51:15.746Z,11.50
2018-08-07T06:53:44.099Z,11.53
2018-08-07T06:56:12.506Z,10.90
2018-08-07T06:58:40.839Z,11.70
2018-08-07T07:01:09.261Z,11.07
2018-08-07T07:03:37.609Z,11.10
2018-08-07T07:06:06.022Z,11.47
2018-08-07T07:08:34.478Z,10.97
2018-08-07T07:11:02.825Z,11.50
2018-08-07T07:13:31.161Z,10.93
2018-08-07T07:15:59.599Z,10.30
2018-08-07T07:18:27.946Z,10.63
2018-08-07T07:20:56.367Z,11.00
2018-08-07T07:23:24.697Z,10.00
2018-08-07T07:25:53.107Z,10.80
2018-08-07T07:28:21.477Z,11.00
2018-08-07T07:30:49.890Z,10.60
2018-08-07T07:33:18.446Z,10.20
2018-08-07T07:35:46.805Z,9.93
2018-08-07T07:38:15.170Z,10.77
2018-08-07T07:40:43.367Z,10.50
2018-08-07T07:43:11.832Z,10.53
2018-08-07T07:45:40.228Z,12.77
2018-08-07T07:48:08.638Z,10.17
2018-08-07T07:50:36.986Z,11.00
2018-08-07T07:53:05.273Z,11.23
2018-08-07T07:55:33.665Z,10.00
2018-08-07T07:58:01.975Z,13.83
2018-08-07T08:00:30.380Z,11.70
2018-08-07T08:02:58.754Z,13.93
2018-08-07T08:05:27.190Z,11.53
2018-08-07T08:07:55.876Z,11.03
2018-08-07T08:10:24.505Z,10.60
2018-08-07T08:12:53.006Z,11.47
2018-08-07T08:15:21.503Z,10.43
2018-08-07T08:17:50.094Z,10.90
2018-08-07T08:20:21.221Z,11.20
2018-08-07T08:22:50.459Z,10.53
2018-08-07T08:25:19.009Z,10.80
2018-08-07T08:27:47.532Z,10.53
2018-08-07T08:30:16.386Z,10.10
2018-08-07T08:32:45.441Z,10.90
2018-08-07T08:35:16.220Z,10.90
2018-08-07T08:37:45.041Z,10.00
2018-08-07T08:40:17.553Z,9.60
2018-08-07T08:42:46.582Z,10.03
2018-08-07T08:45:16.976Z,8.90
2018-08-07T08:47:47.011Z,10.50
2018-08-07T08:50:17.219Z,9.70
2018-08-07T08:52:45.705Z,9.33
2018-08-07T08:55:14.054Z,9.30
2018-08-07T08:57:43.821Z,10.17
2018-08-07T09:00:20.240Z,9.60
2018-08-07T09:02:48.779Z,11.00
2018-08-07T09:05:17.313Z,10.60
2018-08-07T09:07:45.708Z,10.20
2018-08-07T09:10:25.465Z,9.93
2018-08-07T09:12:54.857Z,9.27
2018-08-07T09:15:23.350Z,9.57
2018-08-07T09:17:51.923Z,10.00
2018-08-07T09:20:25.035Z,10.80
2018-08-07T09:22:53.615Z,9.50
2018-08-07T09:25:23.765Z,10.30
2018-08-07T09:27:52.181Z,10.90
2018-08-07T09:30:24.673Z,9.87
2018-08-07T09:32:53.956Z,10.60
2018-08-07T09:35:22.928Z,10.00
2018-08-07T09:37:51.450Z,10.00
2018-08-07T09:40:21.023Z,11.60
2018-08-07T09:42:50.823Z,11.10
2018-08-07T09:45:22.905Z,9.90
2018-08-07T09:48:20.733Z,10.63
2018-08-07T09:50:49.146Z,11.37
2018-08-07T09:53:17.466Z,10.43
2018-08-07T09:55:45.942Z,10.73
2018-08-07T09:58:14.423Z,10.20
2018-08-07T10:00:48.408Z,10.40
2018-08-07T10:03:18.019Z,9.00
2018-08-07T10:05:46.636Z,10.53
2018-08-07T10:08:15.134Z,10.30
2018-08-07T10:10:43.563Z,10.10
2018-08-07T10:13:11.962Z,8.67
2018-08-07T10:15:40.404Z,8.60
2018-08-07T10:18:08.839Z,9.90
2018-08-07T10:20:37.231Z,8.60
2018-08-07T10:23:05.702Z,8.23
2018-08-07T10:25:34.040Z,7.90
2018-08-07T10:28:02.493Z,7.40
2018-08-07T10:30:31.136Z,8.20
2018-08-07T10:33:00.523Z,7.47
2018-08-07T10:35:29.008Z,8.60
2018-08-07T10:37:57.422Z,7.73
2018-08-07T10:40:27.014Z,8.13
2018-08-07T10:42:55.428Z,8.03
2018-08-07T10:45:24.721Z,8.20
2018-08-07T10:47:53.165Z,8.93
2018-08-07T10:50:26.440Z,8.83
2018-08-07T10:52:55.288Z,8.70
2018-08-07T10:55:24.469Z,10.00
2018-08-07T10:57:55.943Z,9.13
2018-08-07T11:00:26.738Z,8.50
2018-08-07T11:02:55.891Z,8.97
2018-08-07T11:05:25.050Z,9.10
2018-08-07T11:07:53.444Z,9.00
2018-08-07T11:10:22.352Z,8.40
2018-08-07T11:12:50.982Z,9.00
2018-08-07T11:15:25.453Z,9.63
2018-08-07T11:17:55.097Z,8.70
2018-08-07T11:20:23.630Z,9.03
2018-08-07T11:22:53.069Z,8.57
2018-08-07T11:25:23.780Z,8.87
2018-08-07T11:27:52.197Z,9.23
2018-08-07T11:30:22.906Z,8.43
2018-08-07T11:32:52.716Z,8.70
2018-08-07T11:35:22.402Z,8.47
2018-08-07T11:37:52.592Z,8.03
2018-08-07T11:40:22.321Z,8.57
2018-08-07T11:42:51.372Z,7.70
2018-08-07T11:45:21.760Z,7.03
2018-08-07T11:47:50.234Z,7.30
2018-08-07T11:50:19.915Z,7.17
2018-08-07T11:52:48.285Z,7.60
2018-08-07T11:55:17.642Z,7.50
2018-08-07T11:57:47.351Z,7.23
2018-08-07T12:00:21.001Z,6.57
2018-08-07T12:02:49.680Z,7.20
2018-08-07T12:05:18.700Z,7.20
2018-08-07T12:07:47.037Z,7.47
2018-08-07T12:10:16.858Z,7.57
2018-08-07T12:12:45.433Z,7.30
2018-08-07T12:15:17.620Z,6.90
2018-08-07T12:17:46.301Z,7.40
2018-08-07T12:20:14.716Z,7.20
2018-08-07T12:22:43.210Z,6.80
2018-08-07T12:25:13.080Z,6.10
2018-08-07T12:27:41.566Z,7.00
2018-08-07T12:30:15.785Z,6.80
2018-08-07T12:32:44.843Z,7.03
2018-08-07T12:35:13.292Z,6.77
2018-08-07T12:37:41.711Z,7.00
2018-08-07T12:40:19.447Z,5.93
2018-08-07T12:42:48.540Z,6.00
2018-08-07T12:45:16.893Z,6.20
2018-08-07T12:47:45.949Z,5.97
2018-08-07T12:50:15.150Z,5.47
2018-08-07T12:52:43.610Z,5.10
2018-08-07T12:55:17.322Z,5.47
2018-08-07T12:57:46.160Z,5.37
2018-08-07T13:00:18.916Z,5.07
2018-08-07T13:02:47.426Z,5.33
2018-08-07T13:05:15.866Z,5.30
2018-08-07T13:07:44.579Z,4.80
2018-08-07T13:10:15.216Z,5.17
2018-08-07T13:12:44.428Z,5.20
2018-08-07T13:15:14.413Z,5.50
2018-08-07T13:17:43.472Z,5.47
2018-08-07T13:20:12.109Z,4.90
2018-08-07T13:22:41.769Z,5.80
2018-08-07T13:25:13.601Z,4.73
2018-08-07T13:27:42.132Z,5.00
2018-08-07T13:30:17.620Z,5.17
2018-08-07T13:32:46.493Z,5.10
2018-08-07T13:35:15.496Z,5.50
2018-08-07T13:37:45.665Z,5.50
2018-08-07T13:40:16.506Z,6.10
2018-08-07T13:42:45.088Z,5.93
2018-08-07T13:45:16.868Z,5.83
2018-08-07T13:47:45.380Z,5.60
2018-08-07T13:50:16.795Z,4.83
2018-08-07T13:52:45.924Z,5.63
2018-08-07T13:55:18.992Z,5.30
2018-08-07T13:57:47.667Z,5.60
2018-08-07T14:00:19.056Z,5.83
2018-08-07T14:02:48.297Z,5.87
2018-08-07T14:05:17.641Z,5.67
2018-08-07T14:07:47.325Z,5.60
2018-08-07T14:10:16.341Z,5.87
2018-08-07T14:12:44.861Z,5.87
2018-08-07T14:15:14.986Z,5.57
2018-08-07T14:17:44.010Z,5.90
2018-08-07T14:20:13.837Z,5.70
2018-08-07T14:22:42.304Z,5.83
2018-08-07T14:25:15.320Z,5.80
2018-08-07T14:27:43.747Z,5.77
2018-08-07T14:30:17.831Z,5.40
2018-08-07T14:32:46.498Z,5.47
2018-08-07T14:35:14.987Z,5.23
2018-08-07T14:37:44.522Z,5.67
2018-08-07T14:40:15.455Z,5.43
2018-08-07T14:42:45.285Z,5.17
2018-08-07T14:45:16.038Z,4.87
2018-08-07T14:47:44.683Z,5.20
2018-08-07T14:50:18.205Z,4.60
2018-08-07T14:52:46.883Z,5.37
2018-08-07T14:55:15.579Z,5.13
2018-08-07T14:57:44.073Z,5.70
2018-08-07T15:00:17.422Z,5.57
2018-08-07T15:02:46.472Z,5.00
2018-08-07T15:05:15.510Z,4.90
2018-08-07T15:07:44.512Z,5.00
2018-08-07T15:10:15.894Z,4.83
2018-08-07T15:12:44.387Z,4.33
2018-08-07T15:15:19.194Z,4.90
2018-08-07T15:17:47.761Z,4.53
2018-08-07T15:20:19.234Z,5.10
2018-08-07T15:22:48.924Z,4.70
2018-08-07T15:25:18.046Z,4.67
2018-08-07T15:27:46.541Z,4.90
2018-08-07T15:30:21.164Z,5.03
2018-08-07T15:32:50.391Z,5.40
2018-08-07T15:35:20.889Z,4.97
2018-08-07T15:37:49.395Z,4.73
2018-08-07T15:40:18.390Z,5.30
2018-08-07T15:42:47.072Z,4.97
2018-08-07T15:45:18.489Z,5.37
2018-08-07T15:47:46.951Z,19.20
2018-08-07T15:50:16.441Z,7.90
2018-08-07T15:52:46.504Z,32.80
2018-08-07T15:55:17.605Z,10.80
2018-08-07T15:57:46.066Z,25.20
2018-08-07T16:00:28.539Z,12.23
2018-08-07T16:03:00.025Z,9.83
2018-08-07T16:05:28.593Z,4.80
2018-08-07T16:07:57.131Z,4.57
2018-08-07T16:10:25.551Z,4.60
2018-08-07T16:12:54.896Z,4.10
2018-08-07T16:15:23.629Z,4.17
2018-08-07T16:17:52.738Z,4.00
2018-08-07T16:20:21.718Z,3.83
2018-08-07T16:22:50.209Z,4.23
2018-08-07T16:25:19.617Z,4.37
2018-08-07T16:27:49.023Z,3.60
2018-08-07T16:30:23.260Z,3.43
2018-08-07T16:32:51.591Z,3.03
2018-08-07T16:35:20.174Z,3.37
2018-08-07T16:37:49.334Z,3.43
2018-08-07T16:40:19.976Z,3.10
2018-08-07T16:42:49.924Z,3.50
2018-08-07T16:45:19.665Z,3.20
2018-08-07T16:47:48.308Z,3.00
2018-08-07T16:50:23.183Z,3.47
2018-08-07T16:52:52.832Z,3.73
2018-08-07T16:55:23.417Z,3.70
2018-08-07T16:57:51.918Z,3.70
2018-08-07T17:00:20.354Z,3.40
2018-08-07T17:02:49.076Z,3.73
2018-08-07T17:05:17.797Z,3.07
2018-08-07T17:07:47.405Z,3.60
2018-08-07T17:10:21.203Z,2.83
2018-08-07T17:12:56.411Z,3.23
2018-08-07T17:15:24.959Z,4.17
2018-08-07T17:17:53.531Z,2.90
2018-08-07T17:20:22.718Z,3.30
2018-08-07T17:22:51.937Z,2.90
2018-08-07T17:25:21.420Z,3.40
2018-08-07T17:27:51.154Z,4.03
2018-08-07T17:30:22.380Z,3.63
2018-08-07T17:32:51.067Z,3.97
2018-08-07T17:35:21.158Z,3.47
2018-08-07T17:37:51.670Z,4.00
2018-08-07T17:40:23.241Z,3.90
2018-08-07T17:42:51.874Z,3.50
2018-08-07T17:45:20.607Z,3.10
2018-08-07T17:47:49.147Z,3.70
2018-08-07T17:50:20.686Z,3.93
2018-08-07T17:52:49.329Z,3.20
2018-08-07T17:55:17.811Z,4.00
2018-08-07T17:57:47.316Z,4.37
2018-08-07T18:00:18.946Z,4.40
2018-08-07T18:02:47.457Z,4.23
2018-08-07T18:05:16.035Z,4.27
2018-08-07T18:07:46.861Z,3.83
2018-08-07T18:10:17.585Z,3.93
2018-08-07T18:12:46.475Z,4.43
2018-08-07T18:15:16.849Z,4.57
2018-08-07T18:17:45.932Z,4.27
2018-08-07T18:20:17.381Z,4.50
2018-08-07T18:22:46.231Z,4.30
2018-08-07T18:25:14.748Z,4.23
2018-08-07T18:27:44.102Z,4.70
2018-08-07T18:30:15.758Z,4.77
2018-08-07T18:32:44.481Z,4.70
2018-08-07T18:35:17.680Z,4.97
2018-08-07T18:37:46.356Z,3.83
2018-08-07T18:40:14.880Z,4.97
2018-08-07T18:42:43.367Z,4.93
2018-08-07T18:45:13.244Z,4.73
2018-08-07T18:47:42.557Z,4.60
2018-08-07T18:50:18.537Z,4.60
2018-08-07T18:52:47.044Z,5.37
2018-08-07T18:55:15.791Z,4.93
2018-08-07T18:57:45.765Z,4.60
2018-08-07T19:00:16.155Z,5.80
2018-08-07T19:02:44.758Z,5.20
2018-08-07T19:05:16.435Z,4.83
2018-08-07T19:07:44.950Z,4.90
2018-08-07T19:10:13.673Z,4.47
2018-08-07T19:12:43.101Z,5.20
2018-08-07T19:15:12.717Z,5.07
2018-08-07T19:17:41.266Z,5.43
2018-08-07T19:20:15.166Z,5.43
2018-08-07T19:22:43.780Z,4.97
2018-08-07T19:25:12.635Z,4.70
2018-08-07T19:27:42.370Z,5.43
2018-08-07T19:30:13.522Z,6.00
2018-08-07T19:32:42.106Z,5.53
2018-08-07T19:35:11.605Z,6.40
2018-08-07T19:37:40.188Z,5.73
2018-08-07T19:40:14.831Z,5.57
2018-08-07T19:42:44.283Z,6.10
2018-08-07T19:45:13.239Z,6.10
2018-08-07T19:47:43.427Z,5.40
2018-08-07T19:50:13.420Z,4.90
2018-08-07T19:52:42.046Z,6.10
2018-08-07T19:55:14.002Z,6.70
2018-08-07T19:57:42.654Z,6.37
2018-08-07T20:00:18.809Z,6.60
2018-08-07T20:02:47.665Z,6.50
2018-08-07T20:05:16.184Z,6.97
2018-08-07T20:07:44.733Z,6.47
2018-08-07T20:10:14.660Z,5.93
2018-08-07T20:12:43.206Z,6.20
2018-08-07T20:15:17.526Z,6.47
2018-08-07T20:17:46.527Z,5.63
2018-08-07T20:20:15.185Z,5.63
2018-08-07T20:22:43.693Z,6.00
2018-08-07T20:25:12.136Z,5.47
2018-08-07T20:27:40.568Z,5.70
2018-08-07T20:30:12.425Z,6.20
2018-08-07T20:32:41.451Z,5.47
2018-08-07T20:35:10.110Z,6.20
2018-08-07T20:37:38.704Z,5.90
2018-08-07T20:40:25.381Z,6.20
2018-08-07T20:42:55.754Z,5.77
2018-08-07T20:45:24.281Z,6.57
2018-08-07T20:47:52.722Z,6.30
2018-08-07T20:50:24.810Z,6.50
2018-08-07T20:52:54.063Z,6.30
2018-08-07T20:55:22.634Z,6.60
2018-08-07T20:57:51.133Z,6.87
2018-08-07T21:00:22.316Z,5.70
2018-08-07T21:02:50.940Z,5.90
2018-08-07T21:05:19.720Z,7.27
2018-08-07T21:07:48.261Z,6.20
2018-08-07T21:10:22.895Z,6.00
2018-08-07T21:12:51.544Z,5.83
2018-08-07T21:15:20.053Z,6.27
2018-08-07T21:17:48.543Z,6.03
2018-08-07T21:20:18.909Z,6.93
2018-08-07T21:22:47.805Z,6.90
2018-08-07T21:25:19.528Z,6.10
2018-08-07T21:27:49.576Z,6.80
2018-08-07T21:30:20.376Z,5.93
2018-08-07T21:32:49.081Z,6.33
2018-08-07T21:35:17.546Z,7.00
2018-08-07T21:37:45.980Z,6.83
2018-08-07T21:40:19.568Z,6.60
2018-08-07T21:42:49.067Z,6.87
2018-08-07T21:45:18.019Z,6.73
2018-08-07T21:47:46.578Z,7.43
2018-08-07T21:50:18.363Z,6.47
2018-08-07T21:52:47.056Z,5.87
2018-08-07T21:55:16.952Z,6.97
2018-08-07T21:57:52.132Z,6.63
2018-08-07T22:00:48.113Z,7.30
2018-08-07T22:03:16.644Z,6.67
2018-08-07T22:05:45.345Z,6.80
2018-08-07T22:08:16.785Z,7.50
2018-08-07T22:10:45.280Z,7.60
2018-08-07T22:13:13.632Z,7.07
2018-08-07T22:15:42.045Z,7.50
2018-08-07T22:18:11.674Z,6.77
2018-08-07T22:20:40.033Z,6.80
2018-08-07T22:23:08.447Z,6.90
2018-08-07T22:25:36.954Z,7.27
2018-08-07T22:28:05.766Z,6.63
2018-08-07T22:30:34.245Z,7.27
2018-08-07T22:33:02.634Z,6.60
2018-08-07T22:35:30.968Z,6.13
2018-08-07T22:37:59.305Z,7.17
2018-08-07T22:40:27.647Z,6.97
2018-08-07T22:42:55.980Z,7.37
2018-08-07T22:45:24.361Z,7.13
2018-08-07T22:47:52.741Z,7.60
2018-08-07T22:50:21.049Z,6.83
2018-08-07T22:52:49.652Z,6.73
2018-08-07T22:55:19.116Z,7.13
2018-08-07T22:57:47.482Z,7.20
2018-08-07T23:00:19.247Z,7.43
2018-08-07T23:02:47.471Z,7.07
2018-08-07T23:05:16.987Z,7.60
2018-08-07T23:07:45.465Z,8.27
2018-08-07T23:10:21.024Z,7.10
2018-08-07T23:12:49.513Z,6.80
2018-08-07T23:15:22.172Z,6.53
2018-08-07T23:17:50.531Z,7.40
2018-08-07T23:20:20.580Z,6.40
2018-08-07T23:22:51.901Z,7.07
2018-08-07T23:25:20.238Z,7.30
2018-08-07T23:27:48.653Z,6.77
2018-08-07T23:30:18.249Z,6.83
2018-08-07T23:32:46.703Z,7.03
2018-08-07T23:35:15.625Z,7.10
2018-08-07T23:37:44.053Z,7.07
2018-08-07T23:40:13.692Z,7.50
2018-08-07T23:42:42.837Z,6.60
2018-08-07T23:45:12.394Z,6.67
2018-08-07T23:47:40.805Z,7.67
2018-08-07T23:50:10.106Z,6.90
2018-08-07T23:52:39.005Z,6.83
2018-08-07T23:55:08.098Z,6.90
2018-08-07T23:57:36.741Z,8.10
